Time;durP1;ratioP1;P1;durP2;ratioP2;P2;SDS_P1;SDS_P2;PMS_P1;PMS_P2;Temp;Humidity;BMP_temperature;BMP_pressure;BME280_temperature;BME280_humidity;BME280_pressure;Samples;Min_cycle;Max_cycle;Signal;HPM_P1;HPM_P2
2023/04/06 00:01:10;;;;;;;16.40;9.65;;;;;;;8.14;100.00;100395.03;4939727;29;20027;-94
2023/04/06 00:03:37;;;;;;;13.95;10.05;;;;;;;8.15;100.00;100400.13;4968378;28;20050;-94
2023/04/06 00:06:03;;;;;;;12.95;10.05;;;;;;;8.19;100.00;100399.97;4951645;28;20429;-94
2023/04/06 00:08:28;;;;;;;11.32;8.98;;;;;;;8.11;100.00;100390.88;4938137;28;20031;-94
2023/04/06 00:10:54;;;;;;;11.13;9.18;;;;;;;8.14;100.00;100393.34;4938208;28;20023;-94
2023/04/06 00:13:19;;;;;;;12.05;10.02;;;;;;;8.12;100.00;100390.00;4938474;29;20073;-95
2023/04/06 00:15:45;;;;;;;12.55;9.30;;;;;;;8.10;100.00;100378.94;4941182;28;20029;-94
2023/04/06 00:18:10;;;;;;;12.00;10.43;;;;;;;8.16;100.00;100377.81;4957269;28;20031;-94
2023/04/06 00:20:36;;;;;;;11.27;9.55;;;;;;;8.12;100.00;100373.72;4972801;28;20392;-94
2023/04/06 00:23:01;;;;;;;11.43;9.48;;;;;;;8.20;100.00;100391.38;4949331;29;20035;-94
2023/04/06 00:25:27;;;;;;;10.60;8.50;;;;;;;8.23;100.00;100386.06;4938671;28;20478;-95
2023/04/06 00:27:52;;;;;;;11.90;9.23;;;;;;;8.14;100.00;100369.34;4954085;28;20019;-95
2023/04/06 00:30:18;;;;;;;14.43;9.30;;;;;;;8.20;100.00;100370.81;4938270;29;20090;-95
2023/04/06 00:32:44;;;;;;;10.95;9.52;;;;;;;8.09;100.00;100369.56;4937942;28;20457;-94
2023/04/06 00:35:10;;;;;;;10.52;9.35;;;;;;;8.23;100.00;100362.94;4937086;28;20144;-94
2023/04/06 00:37:35;;;;;;;11.18;8.23;;;;;;;8.14;100.00;100352.19;4954221;28;20031;-94
2023/04/06 00:40:01;;;;;;;14.40;9.43;;;;;;;8.18;100.00;100359.75;4956852;28;20392;-94
2023/04/06 00:42:26;;;;;;;10.75;8.93;;;;;;;8.21;100.00;100359.59;4955115;28;20109;-95
2023/04/06 00:44:53;;;;;;;9.93;8.93;;;;;;;8.14;100.00;100352.19;4955530;28;20042;-94
2023/04/06 00:47:19;;;;;;;10.57;8.98;;;;;;;8.19;100.00;100354.53;4955755;28;20473;-94
2023/04/06 00:49:44;;;;;;;11.10;9.63;;;;;;;8.19;100.00;100345.97;4956814;28;20037;-94
2023/04/06 00:52:10;;;;;;;11.38;8.25;;;;;;;8.15;100.00;100346.13;4956088;28;20031;-95
2023/04/06 00:54:35;;;;;;;9.27;8.10;;;;;;;8.20;100.00;100337.38;4973824;28;20027;-94
2023/04/06 00:57:01;;;;;;;10.95;8.90;;;;;;;8.12;100.00;100330.00;4956085;28;20114;-95
2023/04/06 00:59:27;;;;;;;10.07;8.90;;;;;;;8.12;100.00;100332.59;4942499;29;20028;-94
2023/04/06 01:01:53;;;;;;;12.07;8.82;;;;;;;8.17;100.00;100337.50;4937548;28;20114;-94
2023/04/06 01:04:18;;;;;;;10.18;8.77;;;;;;;8.18;100.00;100327.16;4956580;28;20433;-95
2023/04/06 01:06:45;;;;;;;9.68;8.25;;;;;;;8.20;100.00;100322.78;4955941;28;20031;-95
2023/04/06 01:09:10;;;;;;;11.52;8.63;;;;;;;8.14;100.00;100321.34;4951243;29;20078;-94
2023/04/06 01:11:36;;;;;;;10.52;8.63;;;;;;;8.29;100.00;100318.91;4952912;29;20031;-94
2023/04/06 01:14:01;;;;;;;10.20;8.82;;;;;;;8.29;100.00;100322.31;4966665;28;20089;-94
2023/04/06 01:16:26;;;;;;;9.75;8.75;;;;;;;8.23;100.00;100317.47;4945425;28;20027;-94
2023/04/06 01:18:52;;;;;;;9.00;8.05;;;;;;;8.24;100.00;100310.59;4956061;28;20031;-94
2023/04/06 01:21:17;;;;;;;9.45;8.50;;;;;;;8.27;100.00;100313.03;4936523;29;20028;-94
2023/04/06 01:23:46;;;;;;;10.55;9.15;;;;;;;8.27;100.00;100313.03;4939019;28;20512;-94
2023/04/06 01:26:12;;;;;;;11.75;8.77;;;;;;;8.27;100.00;100303.56;4945715;28;20030;-94
2023/04/06 01:28:37;;;;;;;9.40;8.40;;;;;;;8.26;100.00;100307.03;4955970;28;20033;-93
2023/04/06 01:31:04;;;;;;;9.38;7.97;;;;;;;8.27;100.00;100305.31;4973519;28;20115;-94
2023/04/06 01:33:30;;;;;;;9.95;8.25;;;;;;;8.27;100.00;100301.00;4955711;28;20026;-94
2023/04/06 01:35:55;;;;;;;11.57;8.50;;;;;;;8.31;100.00;100294.78;4955291;28;20537;-93
2023/04/06 01:38:21;;;;;;;8.70;7.80;;;;;;;8.28;100.00;100291.53;4941341;28;20134;-95
2023/04/06 01:40:46;;;;;;;9.02;8.13;;;;;;;8.27;100.00;100287.31;4953398;28;20027;-94
2023/04/06 01:43:12;;;;;;;11.60;8.82;;;;;;;8.34;100.00;100294.63;4956074;28;20038;-95
2023/04/06 01:45:37;;;;;;;9.55;8.40;;;;;;;8.24;100.00;100295.16;4956307;28;20027;-95
2023/04/06 01:48:03;;;;;;;13.55;8.60;;;;;;;8.27;100.00;100287.31;4957480;28;20055;-94
2023/04/06 01:50:28;;;;;;;8.95;7.78;;;;;;;8.22;100.00;100281.53;4958949;28;20045;-94
2023/04/06 01:52:54;;;;;;;11.05;8.68;;;;;;;8.27;100.00;100284.75;4959444;28;20559;-94
2023/04/06 01:55:20;;;;;;;8.43;7.57;;;;;;;8.20;100.00;100273.09;4957796;28;20118;-94
2023/04/06 01:57:45;;;;;;;10.95;8.07;;;;;;;8.28;100.00;100286.41;4959322;28;20117;-94
2023/04/06 02:00:12;;;;;;;9.02;7.30;;;;;;;8.24;100.00;100274.59;4976646;28;20069;-94
2023/04/06 02:02:37;;;;;;;10.05;8.60;;;;;;;8.21;100.00;100277.31;4953756;28;20101;-94
2023/04/06 02:05:03;;;;;;;7.93;7.13;;;;;;;8.26;100.00;100272.78;4940551;28;20485;-94
2023/04/06 02:07:28;;;;;;;8.68;7.50;;;;;;;8.32;100.00;100275.06;4951899;29;20027;-95
2023/04/06 02:09:55;;;;;;;8.52;7.35;;;;;;;8.30;100.00;100274.28;4940876;29;20031;-95
2023/04/06 02:12:20;;;;;;;8.38;6.90;;;;;;;8.38;100.00;100272.16;4941056;28;20034;-94
2023/04/06 02:14:46;;;;;;;9.07;7.10;;;;;;;8.32;100.00;100272.50;4941086;29;20473;-95
2023/04/06 02:17:11;;;;;;;7.40;6.70;;;;;;;8.33;100.00;100274.97;4946475;28;20541;-94
2023/04/06 02:19:37;;;;;;;8.43;6.78;;;;;;;8.35;100.00;100275.72;4940143;28;20027;-95
2023/04/06 02:22:02;;;;;;;7.63;5.88;;;;;;;8.55;100.00;100295.31;4940800;28;20027;-95
2023/04/06 02:24:27;;;;;;;6.38;4.45;;;;;;;8.52;100.00;100290.31;4953493;28;20062;-94
2023/04/06 02:26:53;;;;;;;2.53;2.33;;;;;;;8.83;100.00;100303.31;4959803;28;20067;-93
2023/04/06 02:29:18;;;;;;;3.92;1.55;;;;;;;8.70;100.00;100305.72;4959516;28;20029;-93
2023/04/06 02:31:44;;;;;;;4.30;1.20;;;;;;;8.72;100.00;100285.88;4956575;28;20062;-92
2023/04/06 02:34:11;;;;;;;1.27;0.77;;;;;;;8.67;100.00;100293.03;4940437;29;20023;-94
2023/04/06 02:36:37;;;;;;;3.65;0.98;;;;;;;8.63;100.00;100283.78;4941413;28;20031;-92
2023/04/06 02:39:03;;;;;;;2.35;0.73;;;;;;;8.62;100.00;100287.28;4976321;28;20039;-93
2023/04/06 02:41:28;;;;;;;1.23;0.65;;;;;;;8.54;100.00;100285.94;4946516;28;20034;-92
2023/04/06 02:43:54;;;;;;;1.08;0.52;;;;;;;8.49;100.00;100277.63;4958942;28;20090;-92
2023/04/06 02:46:19;;;;;;;1.10;0.65;;;;;;;8.41;100.00;100277.16;4959440;28;20397;-92
2023/04/06 02:48:45;;;;;;;2.75;0.30;;;;;;;8.38;100.00;100279.88;4959092;28;20062;-92
2023/04/06 02:51:10;;;;;;;1.48;0.50;;;;;;;8.42;100.00;100276.28;4959713;28;20030;-92
2023/04/06 02:53:36;;;;;;;3.28;0.47;;;;;;;8.33;100.00;100263.84;4975082;28;20042;-92
2023/04/06 02:56:01;;;;;;;2.25;0.30;;;;;;;8.26;100.00;100258.19;4957571;28;20547;-92
2023/04/06 02:58:27;;;;;;;2.15;0.30;;;;;;;8.24;100.00;100256.59;4941102;28;20031;-92
2023/04/06 03:00:52;;;;;;;3.78;0.60;;;;;;;8.21;100.00;100244.72;4939364;28;20027;-93
2023/04/06 03:03:17;;;;;;;2.53;0.50;;;;;;;8.11;100.00;100234.06;4940150;29;20074;-93
2023/04/06 03:05:43;;;;;;;2.03;0.30;;;;;;;8.06;100.00;100228.34;4940382;28;20130;-92
2023/04/06 03:08:08;;;;;;;2.53;0.50;;;;;;;8.00;100.00;100215.81;4953963;28;20049;-93
2023/04/06 03:10:34;;;;;;;3.53;0.52;;;;;;;7.98;100.00;100216.81;4959371;28;20053;-92
2023/04/06 03:12:59;;;;;;;2.25;0.32;;;;;;;7.96;100.00;100219.44;4958683;28;20117;-93
2023/04/06 03:15:25;;;;;;;1.63;0.40;;;;;;;7.91;100.00;100203.41;4959092;28;20413;-93
2023/04/06 03:17:50;;;;;;;0.98;0.20;;;;;;;7.81;100.00;100199.66;4944927;29;20034;-93
2023/04/06 03:20:16;;;;;;;2.05;0.32;;;;;;;7.87;100.00;100212.19;4956888;28;20456;-92
2023/04/06 03:22:41;;;;;;;2.35;0.40;;;;;;;7.75;100.00;100202.50;4941416;28;20041;-93
2023/04/06 03:25:07;;;;;;;1.83;0.43;;;;;;;7.67;100.00;100187.47;4939794;29;20045;-92
2023/04/06 03:27:32;;;;;;;0.73;0.20;;;;;;;7.53;100.00;100189.91;4944831;29;20017;-93
2023/04/06 03:29:58;;;;;;;4.53;0.30;;;;;;;7.46;100.00;100179.09;4939663;28;20134;-93
2023/04/06 03:32:23;;;;;;;1.23;0.40;;;;;;;7.33;100.00;100189.13;4939435;28;20403;-93
2023/04/06 03:34:48;;;;;;;3.03;0.30;;;;;;;7.26;100.00;100178.31;4939130;29;20499;-92
2023/04/06 03:37:14;;;;;;;5.05;0.50;;;;;;;7.23;100.00;100168.19;4939660;29;20114;-92
2023/04/06 03:39:40;;;;;;;1.83;0.50;;;;;;;7.22;100.00;100155.44;4955130;28;20370;-92
2023/04/06 03:42:05;;;;;;;1.77;0.40;;;;;;;7.15;100.00;100175.44;4956191;28;20037;-92
2023/04/06 03:44:31;;;;;;;0.65;0.38;;;;;;;7.13;100.00;100184.94;4958621;28;20039;-92
2023/04/06 03:46:57;;;;;;;2.47;0.60;;;;;;;7.11;100.00;100193.63;4958510;28;20031;-93
2023/04/06 03:49:22;;;;;;;3.75;0.77;;;;;;;7.19;100.00;100187.19;4958624;28;20031;-93
2023/04/06 03:51:48;;;;;;;3.75;0.98;;;;;;;7.43;100.00;100194.66;4975648;28;20532;-93
2023/04/06 03:54:13;;;;;;;8.93;1.70;;;;;;;7.52;100.00;100214.75;4963206;28;20071;-92
2023/04/06 03:56:38;;;;;;;5.15;1.92;;;;;;;7.60;100.00;100210.06;4945726;28;20030;-93
2023/04/06 03:59:04;;;;;;;12.52;2.53;;;;;;;7.83;100.00;100220.97;4958326;28;20027;-93
2023/04/06 04:01:29;;;;;;;13.80;2.67;;;;;;;7.67;100.00;100208.03;4957864;28;20027;-92
2023/04/06 04:03:55;;;;;;;12.75;2.67;;;;;;;7.70;100.00;100213.00;4942759;28;20146;-92
2023/04/06 04:06:20;;;;;;;14.27;3.00;;;;;;;7.77;100.00;100213.56;4950030;28;20390;-92
2023/04/06 04:08:46;;;;;;;10.70;2.25;;;;;;;7.94;100.00;100210.97;4939088;28;20031;-92
2023/04/06 04:11:11;;;;;;;15.00;2.95;;;;;;;7.90;100.00;100202.59;4941888;28;20019;-91
2023/04/06 04:13:37;;;;;;;13.85;2.58;;;;;;;7.82;100.00;100206.44;4942855;28;20035;-92
2023/04/06 04:16:02;;;;;;;10.90;2.22;;;;;;;7.95;100.00;100197.22;4973441;28;20018;-92
2023/04/06 04:18:27;;;;;;;12.00;2.15;;;;;;;7.90;100.00;100194.88;4948707;28;20444;-92
2023/04/06 04:20:53;;;;;;;13.82;2.17;;;;;;;7.86;100.00;100202.81;4965679;28;20118;-93
2023/04/06 04:23:18;;;;;;;19.48;2.60;;;;;;;7.71;100.00;100194.97;4953570;28;20033;-92
2023/04/06 04:25:44;;;;;;;18.42;2.90;;;;;;;7.76;100.00;100202.44;4945038;28;20027;-92
2023/04/06 04:28:09;;;;;;;13.13;2.88;;;;;;;7.93;100.00;100204.19;4938250;28;20027;-92
2023/04/06 04:30:35;;;;;;;18.27;2.80;;;;;;;8.01;100.00;100202.03;4963771;28;20455;-92
2023/04/06 04:33:00;;;;;;;25.08;3.28;;;;;;;8.06;100.00;100200.06;4948565;28;20034;-91
2023/04/06 04:35:26;;;;;;;14.23;2.85;;;;;;;8.01;100.00;100198.66;4952861;28;20078;-93
2023/04/06 04:37:52;;;;;;;19.30;4.00;;;;;;;7.95;100.00;100197.22;4972233;28;20511;-91
2023/04/06 04:40:17;;;;;;;18.63;2.78;;;;;;;7.87;100.00;100178.78;4945125;28;20051;-92
2023/04/06 04:42:42;;;;;;;13.07;2.40;;;;;;;7.84;100.00;100184.91;4945263;28;20011;-91
2023/04/06 04:45:08;;;;;;;10.77;2.30;;;;;;;7.88;100.00;100183.84;4948482;28;20481;-92
2023/04/06 04:47:34;;;;;;;19.95;2.25;;;;;;;7.84;100.00;100181.50;4970319;28;20039;-92
2023/04/06 04:49:59;;;;;;;21.90;2.80;;;;;;;7.78;100.00;100169.81;4937813;28;20062;-92
2023/04/06 04:52:25;;;;;;;16.33;2.45;;;;;;;7.78;100.00;100171.53;4963859;28;20093;-92
2023/04/06 04:54:50;;;;;;;25.80;3.97;;;;;;;7.91;100.00;100172.59;4959821;28;20093;-92
2023/04/06 04:57:16;;;;;;;22.38;3.80;;;;;;;7.84;100.00;100173.81;4937034;29;20031;-92
2023/04/06 04:59:42;;;;;;;25.00;2.83;;;;;;;7.81;100.00;100174.78;4938120;28;20059;-92
2023/04/06 05:02:08;;;;;;;23.88;3.08;;;;;;;7.88;100.00;100177.88;4961421;28;20027;-93
2023/04/06 05:04:33;;;;;;;23.63;3.33;;;;;;;7.97;100.00;100186.84;4957678;28;20038;-92
2023/04/06 05:07:06;;;;;;;18.65;2.95;;;;;;;7.95;100.00;100181.81;4962586;28;20240;-93
2023/04/06 05:09:32;;;;;;;18.27;3.25;;;;;;;7.89;100.00;100176.97;4971099;28;20027;-92
2023/04/06 05:11:58;;;;;;;15.80;3.63;;;;;;;7.92;100.00;100176.81;4960056;28;20470;-93
2023/04/06 05:14:24;;;;;;;24.17;3.30;;;;;;;8.03;100.00;100159.09;4954245;28;20026;-92
2023/04/06 05:16:50;;;;;;;21.75;3.42;;;;;;;7.92;100.00;100176.81;4954929;28;20073;-92
2023/04/06 05:19:15;;;;;;;28.85;4.93;;;;;;;8.13;100.00;100178.28;4955018;28;20069;-92
2023/04/06 05:21:41;;;;;;;23.10;2.67;;;;;;;8.17;100.00;100175.53;4954563;28;20504;-92
2023/04/06 05:24:06;;;;;;;23.15;3.67;;;;;;;8.13;100.00;100180.84;4958296;28;20254;-92
2023/04/06 05:26:32;;;;;;;31.38;4.70;;;;;;;8.00;100.00;100179.84;4943989;28;20031;-91
2023/04/06 05:28:58;;;;;;;32.15;4.85;;;;;;;8.09;100.00;100181.09;4965435;28;20031;-92
2023/04/06 05:31:23;;;;;;;36.30;4.30;;;;;;;7.96;100.00;100183.47;4946019;28;20446;-91
2023/04/06 05:33:48;;;;;;;25.00;4.07;;;;;;;7.99;100.00;100185.88;4951694;28;20042;-90
2023/04/06 05:36:14;;;;;;;20.70;3.88;;;;;;;7.89;100.00;100180.34;4947575;28;20106;-91
2023/04/06 05:38:40;;;;;;;27.60;5.35;;;;;;;7.92;100.00;100169.09;4965386;28;20031;-91
2023/04/06 05:41:05;;;;;;;28.58;5.68;;;;;;;8.06;100.00;100184.66;4980490;28;20038;-91
2023/04/06 05:43:31;;;;;;;22.95;4.78;;;;;;;8.04;100.00;100186.47;4966890;28;20094;-91
2023/04/06 05:45:56;;;;;;;33.78;5.78;;;;;;;8.09;100.00;100179.34;4987031;28;20122;-91
2023/04/06 05:48:22;;;;;;;29.98;6.38;;;;;;;8.10;100.00;100186.16;4984033;28;20026;-91
2023/04/06 05:50:52;;;;;;;31.45;7.15;;;;;;;8.08;100.00;100198.25;4968190;28;20033;-91
2023/04/06 05:53:18;;;;;;;24.50;6.32;;;;;;;8.06;100.00;100194.94;4970449;28;20042;-90
2023/04/06 05:55:43;;;;;;;35.90;8.63;;;;;;;8.17;100.00;100206.41;4959798;28;20015;-92
2023/04/06 05:58:09;;;;;;;32.65;7.38;;;;;;;8.26;100.00;100200.78;4954658;28;20077;-91
2023/04/06 06:00:34;;;;;;;31.70;7.65;;;;;;;8.20;100.00;100195.97;4956374;28;20448;-92
2023/04/06 06:03:00;;;;;;;35.55;9.60;;;;;;;8.25;100.00;100209.44;4982524;28;20033;-92
2023/04/06 06:05:25;;;;;;;39.30;10.52;;;;;;;8.16;100.00;100208.16;4978053;28;20030;-91
2023/04/06 06:07:51;;;;;;;43.30;15.07;;;;;;;8.25;100.00;100212.00;4978037;28;20038;-91
2023/04/06 06:10:17;;;;;;;40.15;11.95;;;;;;;8.41;100.00;100220.59;4959959;28;20038;-91
2023/04/06 06:12:42;;;;;;;45.20;12.90;;;;;;;8.20;100.00;100213.97;4967551;28;20023;-92
2023/04/06 06:15:08;;;;;;;46.72;12.00;;;;;;;8.26;100.00;100200.78;4947135;28;20039;-92
2023/04/06 06:17:33;;;;;;;36.55;10.68;;;;;;;8.23;100.00;100211.25;4970624;28;20062;-92
2023/04/06 06:19:59;;;;;;;33.28;11.40;;;;;;;8.30;100.00;100220.31;4953709;28;20053;-92
2023/04/06 06:22:24;;;;;;;43.45;11.30;;;;;;;8.36;100.00;100223.41;4977969;28;20041;-91
2023/04/06 06:24:50;;;;;;;35.28;11.88;;;;;;;8.34;100.00;100234.66;4975571;28;20027;-91
2023/04/06 06:27:15;;;;;;;34.28;10.77;;;;;;;8.47;100.00;100230.56;4956163;28;20031;-92
2023/04/06 06:29:41;;;;;;;26.17;10.90;;;;;;;8.50;100.00;100230.41;4948993;28;20020;-92
2023/04/06 06:32:08;;;;;;;38.55;11.05;;;;;;;8.55;100.00;100225.84;4965270;28;20389;-92
2023/04/06 06:34:34;;;;;;;28.65;10.43;;;;;;;8.51;100.00;100232.09;4945838;28;20054;-90
2023/04/06 06:37:00;;;;;;;26.38;10.60;;;;;;;8.49;100.00;100233.91;4953608;28;20062;-91
2023/04/06 06:39:26;;;;;;;32.05;10.43;;;;;;;8.48;100.00;100239.94;4966714;28;20037;-91
2023/04/06 06:41:51;;;;;;;35.85;12.32;;;;;;;8.59;100.00;100246.28;4963260;28;20034;-92
2023/04/06 06:44:17;;;;;;;31.13;12.27;;;;;;;8.62;100.00;100248.69;4946172;28;20405;-92
2023/04/06 06:46:42;;;;;;;28.88;10.55;;;;;;;8.53;100.00;100256.00;4967090;28;20453;-92
2023/04/06 06:49:08;;;;;;;38.53;11.85;;;;;;;8.56;100.00;100257.56;4973204;28;20027;-91
2023/04/06 06:51:33;;;;;;;34.65;12.20;;;;;;;8.62;100.00;100251.25;4944590;29;20035;-92
2023/04/06 06:53:59;;;;;;;35.67;14.25;;;;;;;8.56;100.00;100258.41;4938601;28;20034;-91
2023/04/06 06:56:26;;;;;;;41.78;14.40;;;;;;;8.81;100.00;100267.41;4972317;28;20392;-92
2023/04/06 06:58:51;;;;;;;45.22;15.90;;;;;;;8.82;100.00;100261.31;4956073;28;20377;-91
2023/04/06 07:01:17;;;;;;;35.00;14.60;;;;;;;9.06;100.00;100253.22;4972708;28;20023;-92
2023/04/06 07:03:42;;;;;;;33.55;13.50;;;;;;;9.23;100.00;100263.44;4939264;28;20031;-92
2023/04/06 07:06:08;;;;;;;42.15;14.48;;;;;;;9.24;100.00;100247.03;4941264;28;20031;-92
2023/04/06 07:08:33;;;;;;;38.25;13.73;;;;;;;9.20;100.00;100255.88;4955320;28;20023;-91
2023/04/06 07:10:58;;;;;;;38.00;11.98;;;;;;;9.22;100.00;100261.78;4938490;28;20114;-92
2023/04/06 07:13:24;;;;;;;28.67;11.48;;;;;;;9.13;100.00;100259.69;4939010;28;20393;-92
2023/04/06 07:15:50;;;;;;;28.55;11.63;;;;;;;9.07;100.00;100271.16;4965868;28;20389;-92
2023/04/06 07:18:17;;;;;;;30.25;11.48;;;;;;;8.94;100.00;100268.41;4972464;28;20059;-91
2023/04/06 07:20:42;;;;;;;27.55;11.35;;;;;;;9.09;100.00;100258.19;4970660;28;20572;-92
2023/04/06 07:23:08;;;;;;;32.15;10.40;;;;;;;9.13;100.00;100260.53;4972775;28;20487;-93
2023/04/06 07:25:33;;;;;;;18.92;9.68;;;;;;;9.14;100.00;100271.66;4945428;29;20109;-92
2023/04/06 07:27:58;;;;;;;27.70;9.57;;;;;;;9.18;100.00;100268.81;4938090;28;20037;-92
2023/04/06 07:30:26;;;;;;;29.92;8.65;;;;;;;9.21;100.00;100262.69;4944147;28;20393;-92
2023/04/06 07:32:51;;;;;;;17.55;7.80;;;;;;;9.06;100.00;100274.63;4954977;28;20026;-91
2023/04/06 07:35:17;;;;;;;20.40;6.72;;;;;;;9.19;100.00;100270.50;4968523;28;20035;-92
2023/04/06 07:37:42;;;;;;;18.23;6.65;;;;;;;9.20;100.00;100276.47;4959923;28;20110;-91
2023/04/06 07:40:08;;;;;;;17.85;5.93;;;;;;;9.19;100.00;100269.66;4960678;28;20405;-92
2023/04/06 07:42:34;;;;;;;16.27;5.57;;;;;;;9.40;100.00;100271.06;4973114;28;20023;-91
2023/04/06 07:44:59;;;;;;;21.85;6.18;;;;;;;9.41;100.00;100285.63;4949283;28;20027;-91
2023/04/06 07:47:25;;;;;;;13.73;5.35;;;;;;;9.42;100.00;100286.44;4954516;28;20110;-92
2023/04/06 07:49:50;;;;;;;16.15;6.85;;;;;;;9.59;100.00;100282.94;4969420;28;20037;-92
2023/04/06 07:52:15;;;;;;;13.73;5.35;;;;;;;9.88;100.00;100288.19;4963391;28;20026;-93
2023/04/06 07:54:42;;;;;;;17.95;5.57;;;;;;;10.23;100.00;100291.31;4948907;28;20035;-92
2023/04/06 07:57:07;;;;;;;16.48;4.75;;;;;;;10.32;100.00;100284.81;4972830;28;20114;-92
2023/04/06 07:59:32;;;;;;;15.35;5.13;;;;;;;10.25;100.00;100284.31;4962392;28;20027;-92
2023/04/06 08:01:58;;;;;;;9.43;3.70;;;;;;;10.23;100.00;100286.97;4958469;28;20019;-92
2023/04/06 08:04:23;;;;;;;19.77;5.88;;;;;;;10.25;100.00;100281.72;4955356;28;20110;-92
2023/04/06 08:06:48;;;;;;;17.77;6.63;;;;;;;10.35;100.00;100287.22;4955366;28;20079;-92
2023/04/06 08:09:14;;;;;;;16.75;6.85;;;;;;;10.45;100.00;100293.50;4951163;28;20062;-93
2023/04/06 08:11:40;;;;;;;14.32;7.00;;;;;;;10.48;100.00;100304.47;4956945;28;20031;-93
2023/04/06 08:14:05;;;;;;;15.52;6.18;;;;;;;10.54;100.00;100292.94;4950246;28;20062;-92
2023/04/06 08:16:31;;;;;;;19.70;7.10;;;;;;;10.49;100.00;100294.97;4957327;28;20515;-93
2023/04/06 08:18:56;;;;;;;14.70;7.40;;;;;;;10.66;100.00;100299.94;4974412;28;20692;-93
2023/04/06 08:21:22;;;;;;;14.10;6.20;;;;;;;10.90;100.00;100295.06;4957395;28;20500;-94
2023/04/06 08:23:47;;;;;;;18.33;6.70;;;;;;;11.00;100.00;100300.50;4955950;28;20073;-93
2023/04/06 08:26:12;;;;;;;20.20;7.30;;;;;;;11.57;100.00;100300.34;4955578;28;20027;-92
2023/04/06 08:28:38;;;;;;;14.52;6.15;;;;;;;11.86;99.14;100289.88;4972605;28;20106;-93
2023/04/06 08:31:05;;;;;;;16.40;5.70;;;;;;;12.51;94.62;100302.00;4957476;28;20031;-93
2023/04/06 08:33:31;;;;;;;12.75;5.75;;;;;;;12.92;92.80;100300.09;4943891;28;21116;-93
2023/04/06 08:35:56;;;;;;;14.82;5.30;;;;;;;13.98;87.46;100308.13;4951367;28;20086;-95
2023/04/06 08:38:22;;;;;;;15.25;5.82;;;;;;;14.34;82.72;100307.16;4946014;28;20023;-93
2023/04/06 08:40:49;;;;;;;12.55;4.63;;;;;;;14.35;80.70;100321.78;4966094;28;20420;-94
2023/04/06 08:43:20;;;;;;;21.80;4.53;;;;;;;14.95;78.10;100323.25;4956443;28;20535;-94
2023/04/06 08:45:45;;;;;;;9.55;3.50;;;;;;;15.25;74.87;100311.41;4956700;28;20097;-94
2023/04/06 08:48:11;;;;;;;9.80;4.25;;;;;;;15.10;72.38;100310.84;4956672;28;20058;-94
2023/04/06 08:50:39;;;;;;;11.48;4.20;;;;;;;16.37;71.85;100324.94;4955980;28;20027;-94
2023/04/06 08:53:06;;;;;;;9.85;3.50;;;;;;;17.33;65.21;100313.25;4956487;28;20488;-94
2023/04/06 08:55:32;;;;;;;10.43;3.30;;;;;;;17.61;63.50;100313.44;4956577;28;20030;-93
2023/04/06 08:57:59;;;;;;;7.82;3.05;;;;;;;18.30;60.00;100321.09;4955427;28;20026;-93
2023/04/06 09:00:26;;;;;;;10.35;3.05;;;;;;;18.76;57.94;100327.31;4956394;28;20077;-93
2023/04/06 09:02:53;;;;;;;10.55;2.40;;;;;;;19.00;55.90;100325.97;4956539;28;20113;-94
2023/04/06 09:05:19;;;;;;;6.80;2.60;;;;;;;19.09;57.06;100332.91;4973436;28;20354;-96
2023/04/06 09:07:45;;;;;;;10.73;3.00;;;;;;;18.75;56.81;100325.63;4956761;28;20027;-95
2023/04/06 09:10:10;;;;;;;10.07;2.58;;;;;;;19.15;55.35;100327.13;4954794;28;20517;-96
2023/04/06 09:12:36;;;;;;;11.30;2.35;;;;;;;19.71;53.86;100321.81;4937333;28;20027;-94
2023/04/06 09:15:02;;;;;;;6.95;2.15;;;;;;;20.94;53.91;100321.63;4939339;28;20054;-93
2023/04/06 09:17:33;;;;;;;9.50;1.98;;;;;;;21.58;48.94;100334.28;4939069;29;20059;-94
2023/04/06 09:20:00;;;;;;;4.28;1.70;;;;;;;21.32;49.72;100334.41;4937181;28;20031;-93
2023/04/06 09:22:26;;;;;;;9.18;2.55;;;;;;;21.04;48.68;100342.50;4937713;28;20039;-94
2023/04/06 09:24:53;;;;;;;6.97;2.35;;;;;;;20.80;48.96;100340.63;4937897;28;20118;-93
2023/04/06 09:27:33;;;;;;;8.98;1.75;;;;;;;21.10;48.48;100333.19;4955550;28;20022;-93
2023/04/06 09:30:05;;;;;;;7.18;2.38;;;;;;;20.79;49.07;100349.44;4956671;28;20023;-93
2023/04/06 09:32:31;;;;;;;8.30;1.83;;;;;;;20.93;47.76;100348.03;4956054;28;20571;-95
2023/04/06 09:35:09;;;;;;;8.55;1.95;;;;;;;20.58;49.26;100352.47;4951455;28;20054;-92
2023/04/06 09:37:35;;;;;;;8.27;1.80;;;;;;;19.92;50.24;100345.06;4961923;28;20430;-93
2023/04/06 09:40:08;;;;;;;7.10;1.60;;;;;;;20.28;48.78;100354.53;4936935;28;20160;-94
2023/04/06 09:42:34;;;;;;;4.53;1.30;;;;;;;21.00;47.56;100350.88;4940827;28;20055;-96
2023/04/06 09:45:03;;;;;;;5.40;1.33;;;;;;;22.11;46.05;100346.13;4936848;28;20031;-95
2023/04/06 09:47:30;;;;;;;6.70;1.50;;;;;;;21.66;45.89;100355.34;4937009;28;20027;-93
2023/04/06 09:49:58;;;;;;;4.38;1.20;;;;;;;20.77;44.68;100348.78;4937042;28;20027;-94
2023/04/06 09:52:33;;;;;;;5.32;1.20;;;;;;;19.66;47.71;100356.28;4955376;28;20074;-93
2023/04/06 09:55:04;;;;;;;7.25;1.35;;;;;;;18.20;48.63;100361.25;4956517;28;20034;-93
2023/04/06 09:57:37;;;;;;;;;;;;;;;17.28;52.50;100365.00;4956103;28;20031;-94
2023/04/06 10:00:09;;;;;;;7.80;1.60;;;;;;;17.15;55.29;100352.19;4974425;28;19918;-93
2023/04/06 10:02:48;;;;;;;9.25;3.50;;;;;;;18.00;52.32;100350.00;4956093;28;20476;-93
2023/04/06 10:05:30;;;;;;;5.13;0.85;;;;;;;18.26;54.60;100360.69;4955745;28;20038;-93
2023/04/06 10:07:57;;;;;;;5.75;1.38;;;;;;;18.01;52.46;100357.69;4956286;28;20042;-93
2023/04/06 10:10:23;;;;;;;9.75;1.50;;;;;;;17.75;52.84;100365.22;4959315;28;20063;-92
2023/04/06 10:12:49;;;;;;;7.97;1.48;;;;;;;17.40;53.61;100366.53;4953778;28;20058;-92
2023/04/06 10:15:15;;;;;;;12.00;1.35;;;;;;;17.24;54.22;100364.44;4941253;28;20028;-93
2023/04/06 10:17:41;;;;;;;5.75;1.13;;;;;;;17.42;54.26;100367.22;4944738;28;20547;-94
2023/04/06 10:20:39;;;;;;;10.13;1.45;;;;;;;16.86;54.46;100360.72;4960110;28;20023;-94
2023/04/06 10:23:21;;;;;;;6.70;1.75;;;;;;;16.56;56.92;100363.31;4960331;28;20090;-96
2023/04/06 10:25:57;;;;;;;9.20;2.25;;;;;;;16.53;56.90;100363.53;4960541;28;20467;-95
2023/04/06 10:28:23;;;;;;;7.97;1.58;;;;;;;15.89;58.37;100380.09;4945355;29;20381;-96
2023/04/06 10:31:09;;;;;;;6.57;2.05;;;;;;;15.72;59.12;100364.03;4941868;29;20023;-96
2023/04/06 10:41:54;;;;;;;7.65;2.22;;;;;;;15.24;62.09;100377.38;4881718;29;20533;-96
2023/04/06 10:44:23;;;;;;;13.13;2.80;;;;;;;15.14;61.11;100363.41;4869064;29;20483;-95
2023/04/06 10:46:54;;;;;;;16.02;3.42;;;;;;;14.90;61.83;100366.97;4934903;28;20035;-95
2023/04/06 10:49:20;;;;;;;11.05;2.38;;;;;;;15.83;61.08;100387.44;4943470;28;20403;-94
2023/04/06 10:51:56;;;;;;;11.60;2.72;;;;;;;15.95;60.45;100358.78;4949732;28;20035;-96
2023/04/06 10:54:26;;;;;;;12.55;3.15;;;;;;;15.73;59.84;100360.50;4963993;28;20030;-96
2023/04/06 10:56:51;;;;;;;11.43;2.72;;;;;;;15.57;59.02;100370.44;4962915;28;20041;-97
2023/04/06 10:59:21;;;;;;;8.55;2.88;;;;;;;15.37;58.87;100365.03;4963020;28;20113;-96
2023/04/06 11:01:48;;;;;;;10.27;4.22;;;;;;;15.23;61.26;100373.09;4976869;28;20035;-96
2023/04/06 11:04:17;;;;;;;10.02;2.80;;;;;;;15.29;59.52;100371.78;4942978;28;20098;-96
2023/04/06 11:06:47;;;;;;;9.40;2.25;;;;;;;16.07;61.04;100370.78;4947803;28;20077;-96
2023/04/06 11:09:26;;;;;;;10.95;2.38;;;;;;;17.13;55.16;100376.75;4967605;28;20069;-96
2023/04/06 11:11:52;;;;;;;10.73;2.42;;;;;;;17.60;54.40;100374.41;4966394;28;20029;-96
2023/04/06 11:14:23;;;;;;;14.98;2.90;;;;;;;17.01;54.24;100379.44;4967652;28;20031;-96
2023/04/06 11:17:15;;;;;;;8.57;1.73;;;;;;;16.67;52.97;100397.91;4967368;29;20039;-96
2023/04/06 11:19:41;;;;;;;7.25;2.08;;;;;;;15.61;60.03;100416.09;4955784;28;20062;-94
2023/04/06 11:22:08;;;;;;;5.32;1.15;;;;;;;14.65;65.45;100398.34;4949913;28;20485;-96
2023/04/06 11:24:33;;;;;;;3.80;1.00;;;;;;;13.53;69.29;100419.41;4944307;29;20035;-96